Terminal Aerodrome Forecast
Issued by NWS Goodland, KS

Home | Current Version | Previous Version | Text Only | Print | Product List | Glossary On
Versions: 1 2 3 4 5 6 7 8 9 10 11 12
298
FTUS43 KGLD 291742
TAFGLD
TAF
KGLD 291742Z 2918/3018 15014KT P6SM SKC
     FM300100 14010KT P6SM SKC
     FM301400 15012KT P6SM FEW200=

USA.gov is the U.S. government's official web portal to all federal, state and local government web resources and services.